Time;durP1;ratioP1;P1;durP2;ratioP2;P2;SDS_P1;SDS_P2;PMS_P1;PMS_P2;Temp;Humidity;BMP_temperature;BMP_pressure;BME280_temperature;BME280_humidity;BME280_pressure;Samples;Min_cycle;Max_cycle;Signal;HPM_P1;HPM_P2
2021/09/17 00:01:15;;;;;;;0.00;0.00;;;15.10;55.30;;;;;;5037459;28;20025;-74
2021/09/17 00:03:41;;;;;;;0.10;0.10;;;15.10;55.50;;;;;;5036615;28;20041;-75
2021/09/17 00:06:07;;;;;;;0.00;0.00;;;15.00;55.50;;;;;;5052555;28;20029;-76
2021/09/17 00:08:32;;;;;;;0.00;0.00;;;15.00;55.50;;;;;;5037415;28;20025;-74
2021/09/17 00:10:58;;;;;;;0.00;0.00;;;15.00;55.60;;;;;;5037612;28;20113;-75
2021/09/17 00:13:24;;;;;;;0.00;0.00;;;15.00;55.60;;;;;;5037182;28;20513;-75
2021/09/17 00:15:50;;;;;;;0.00;0.00;;;15.00;55.70;;;;;;5037843;28;20079;-75
2021/09/17 00:18:16;;;;;;;0.00;0.00;;;14.90;55.80;;;;;;5037468;28;20029;-75
2021/09/17 00:20:42;;;;;;;0.00;0.00;;;14.90;55.90;;;;;;5037444;28;20131;-74
2021/09/17 00:23:08;;;;;;;0.10;0.10;;;14.90;55.90;;;;;;5037032;28;20027;-75
2021/09/17 00:25:33;;;;;;;0.00;0.00;;;14.90;55.90;;;;;;5035701;28;20040;-74
2021/09/17 00:27:59;;;;;;;0.00;0.00;;;14.90;56.00;;;;;;5036699;28;20144;-74
2021/09/17 00:30:28;;;;;;;0.00;0.00;;;14.90;56.00;;;;;;5037020;28;20022;-74
2021/09/17 00:32:55;;;;;;;0.00;0.00;;;14.80;56.10;;;;;;5035751;28;20385;-77
2021/09/17 00:35:21;;;;;;;0.00;0.00;;;14.80;56.20;;;;;;5035659;28;20120;-75
2021/09/17 00:37:46;;;;;;;0.00;0.00;;;14.70;56.30;;;;;;5036847;28;20057;-75
2021/09/17 00:40:13;;;;;;;0.00;0.00;;;14.70;56.40;;;;;;5036695;28;20103;-75
2021/09/17 00:42:39;;;;;;;0.20;0.00;;;14.60;56.50;;;;;;5037503;28;20351;-75
2021/09/17 00:45:07;;;;;;;0.00;0.00;;;14.60;56.70;;;;;;5036516;28;20033;-75
2021/09/17 00:47:33;;;;;;;0.10;0.00;;;14.60;56.70;;;;;;5036209;28;20036;-75
2021/09/17 00:49:59;;;;;;;0.00;0.00;;;14.60;56.80;;;;;;5036402;28;20021;-75
2021/09/17 00:52:25;;;;;;;0.00;0.00;;;14.60;56.90;;;;;;5036648;28;20116;-75
2021/09/17 00:54:51;;;;;;;0.20;0.00;;;14.50;56.90;;;;;;5034880;28;20083;-74
2021/09/17 00:57:17;;;;;;;0.00;0.00;;;14.50;57.00;;;;;;5036876;28;20056;-74
2021/09/17 00:59:43;;;;;;;0.00;0.00;;;14.50;57.10;;;;;;5036327;28;20079;-74
2021/09/17 01:02:11;;;;;;;0.00;0.00;;;14.40;57.10;;;;;;5051743;28;20068;-75
2021/09/17 01:04:37;;;;;;;0.00;0.00;;;14.50;57.10;;;;;;5051693;28;20041;-75
2021/09/17 01:07:03;;;;;;;0.00;0.00;;;14.40;57.10;;;;;;5035952;28;20039;-75
2021/09/17 01:09:29;;;;;;;0.00;0.00;;;14.40;57.10;;;;;;5036432;28;20073;-75
2021/09/17 01:11:55;;;;;;;0.00;0.00;;;14.40;57.10;;;;;;5035883;28;20036;-76
2021/09/17 01:14:21;;;;;;;0.00;0.00;;;14.50;57.20;;;;;;5036179;28;20052;-74
2021/09/17 01:16:47;;;;;;;0.00;0.00;;;14.50;57.30;;;;;;5036474;28;20061;-74
2021/09/17 01:19:12;;;;;;;0.00;0.00;;;14.50;57.20;;;;;;5036032;28;20060;-74
2021/09/17 01:21:39;;;;;;;0.00;0.00;;;14.50;57.30;;;;;;5034750;28;20025;-77
2021/09/17 01:24:05;;;;;;;0.00;0.00;;;14.50;57.30;;;;;;5036516;28;20022;-74
2021/09/17 01:26:30;;;;;;;0.00;0.00;;;14.50;57.30;;;;;;5036360;28;20092;-74
2021/09/17 01:28:56;;;;;;;0.00;0.00;;;14.50;57.30;;;;;;5036949;28;20080;-75
2021/09/17 01:31:22;;;;;;;0.00;0.00;;;14.50;57.40;;;;;;5036423;28;20105;-75
2021/09/17 01:33:48;;;;;;;0.00;0.00;;;14.40;57.40;;;;;;5036439;28;20030;-74
2021/09/17 01:36:14;;;;;;;0.00;0.00;;;14.40;57.50;;;;;;5036262;28;20057;-74
2021/09/17 01:38:41;;;;;;;0.00;0.00;;;14.40;57.60;;;;;;5050731;28;20041;-74
2021/09/17 01:41:08;;;;;;;0.00;0.00;;;14.40;57.70;;;;;;5035613;28;20097;-75
2021/09/17 01:43:34;;;;;;;0.00;0.00;;;14.40;57.70;;;;;;5035346;28;20026;-75
2021/09/17 01:46:01;;;;;;;0.00;0.00;;;14.40;57.70;;;;;;5035986;28;20044;-76
2021/09/17 01:48:28;;;;;;;0.00;0.00;;;14.40;57.80;;;;;;5035493;28;20040;-74
2021/09/17 01:50:54;;;;;;;0.00;0.00;;;14.40;57.90;;;;;;5035406;28;20393;-75
2021/09/17 01:53:20;;;;;;;0.00;0.00;;;14.30;57.90;;;;;;5035590;28;20034;-74
2021/09/17 01:55:46;;;;;;;0.00;0.00;;;14.30;58.00;;;;;;5050538;28;20566;-74
2021/09/17 01:58:11;;;;;;;0.00;0.00;;;14.20;58.10;;;;;;5035624;28;20128;-75
2021/09/17 02:00:37;;;;;;;0.00;0.00;;;14.20;58.20;;;;;;5034437;28;20025;-74
2021/09/17 02:03:03;;;;;;;0.00;0.00;;;14.10;58.30;;;;;;5035207;28;20075;-75
2021/09/17 02:05:29;;;;;;;0.00;0.00;;;14.10;58.40;;;;;;5035073;28;20029;-75
2021/09/17 02:07:57;;;;;;;0.00;0.00;;;14.10;58.50;;;;;;5035133;28;20033;-76
2021/09/17 02:10:24;;;;;;;0.00;0.00;;;14.10;58.60;;;;;;5035093;28;20025;-76
2021/09/17 02:12:49;;;;;;;0.00;0.00;;;14.00;58.70;;;;;;5034639;28;20025;-76
2021/09/17 02:15:15;;;;;;;0.00;0.00;;;14.10;58.80;;;;;;5035131;28;20036;-73
2021/09/17 02:17:41;;;;;;;0.00;0.00;;;14.00;58.80;;;;;;5034767;28;20029;-75
2021/09/17 02:20:08;;;;;;;0.00;0.00;;;14.00;58.80;;;;;;5034587;28;20021;-76
2021/09/17 02:22:34;;;;;;;0.00;0.00;;;14.00;58.90;;;;;;5034774;28;20026;-75
2021/09/17 02:25:01;;;;;;;0.00;0.00;;;14.00;58.90;;;;;;5034862;28;20113;-75
2021/09/17 02:27:27;;;;;;;0.00;0.00;;;14.00;59.00;;;;;;5034752;28;20029;-75
2021/09/17 02:29:53;;;;;;;0.00;0.00;;;13.90;59.10;;;;;;5034679;28;20018;-75
2021/09/17 02:32:19;;;;;;;0.00;0.00;;;13.90;59.20;;;;;;5034103;28;20021;-75
2021/09/17 02:34:45;;;;;;;0.00;0.00;;;13.90;59.30;;;;;;5034345;28;20140;-74
2021/09/17 02:37:10;;;;;;;0.00;0.00;;;13.90;59.30;;;;;;5034690;28;20026;-74
2021/09/17 02:39:36;;;;;;;0.00;0.00;;;13.90;59.40;;;;;;5034505;28;20022;-75
2021/09/17 02:42:04;;;;;;;0.00;0.00;;;13.90;59.50;;;;;;5034477;28;20025;-75
2021/09/17 02:44:30;;;;;;;0.00;0.00;;;13.80;59.50;;;;;;5034404;28;20109;-75
2021/09/17 02:46:56;;;;;;;0.00;0.00;;;13.90;59.60;;;;;;5034231;28;20029;-75
2021/09/17 02:49:22;;;;;;;0.00;0.00;;;13.90;59.60;;;;;;5034175;28;20028;-75
2021/09/17 02:51:48;;;;;;;0.00;0.00;;;13.90;59.60;;;;;;5034205;28;20026;-74
2021/09/17 02:54:14;;;;;;;0.00;0.00;;;13.90;59.60;;;;;;5033461;28;20025;-75
2021/09/17 02:56:39;;;;;;;0.00;0.00;;;13.90;59.60;;;;;;5033689;28;20454;-74
2021/09/17 02:59:05;;;;;;;0.00;0.00;;;14.00;59.60;;;;;;5034861;28;20075;-76
2021/09/17 03:01:31;;;;;;;0.00;0.00;;;14.00;59.50;;;;;;5049455;28;20079;-75
2021/09/17 03:03:56;;;;;;;0.00;0.00;;;14.00;59.40;;;;;;5034040;28;20025;-75
2021/09/17 03:06:25;;;;;;;0.00;0.00;;;14.10;59.40;;;;;;5034280;28;20420;-74
2021/09/17 03:08:51;;;;;;;0.00;0.00;;;14.10;59.40;;;;;;5034103;28;20030;-75
2021/09/17 03:11:17;;;;;;;0.00;0.00;;;14.10;59.30;;;;;;5033915;28;20413;-74
2021/09/17 03:13:43;;;;;;;0.10;0.00;;;14.10;59.30;;;;;;5033667;28;20446;-74
2021/09/17 03:16:11;;;;;;;0.00;0.00;;;14.10;59.30;;;;;;5034757;28;20079;-76
2021/09/17 03:18:37;;;;;;;0.00;0.00;;;14.10;59.30;;;;;;5033886;28;20021;-74
2021/09/17 03:21:02;;;;;;;0.00;0.00;;;14.10;59.30;;;;;;5033479;28;20029;-80
2021/09/17 03:23:28;;;;;;;0.00;0.00;;;14.10;59.30;;;;;;5033488;28;20477;-74
2021/09/17 03:25:54;;;;;;;0.00;0.00;;;14.10;59.30;;;;;;5033434;28;20389;-74
2021/09/17 03:28:20;;;;;;;0.00;0.00;;;14.10;59.30;;;;;;5034039;28;20026;-75
2021/09/17 03:30:45;;;;;;;0.00;0.00;;;14.20;59.40;;;;;;5033725;28;20034;-74
2021/09/17 03:33:12;;;;;;;0.00;0.00;;;14.20;59.30;;;;;;5033463;28;20462;-75
2021/09/17 03:35:38;;;;;;;0.05;0.00;;;14.10;59.30;;;;;;5033892;28;20045;-75
2021/09/17 03:38:05;;;;;;;0.00;0.00;;;14.20;59.40;;;;;;5033676;28;20034;-78
2021/09/17 03:40:58;;;;;;;0.00;0.00;;;14.10;59.40;;;;;;5033633;28;20118;-75
2021/09/17 03:43:24;;;;;;;0.00;0.00;;;14.20;59.40;;;;;;5033242;28;20465;-76
2021/09/17 03:45:50;;;;;;;0.00;0.00;;;14.20;59.30;;;;;;5033526;28;20030;-75
2021/09/17 03:48:15;;;;;;;0.00;0.00;;;14.20;59.20;;;;;;5033557;28;20373;-75
2021/09/17 03:50:42;;;;;;;0.00;0.00;;;14.30;59.20;;;;;;5033573;28;20470;-74
2021/09/17 03:53:08;;;;;;;0.00;0.00;;;14.30;59.20;;;;;;5033563;28;20049;-76
2021/09/17 03:55:34;;;;;;;0.00;0.00;;;14.30;59.10;;;;;;5033074;28;20033;-76
2021/09/17 03:58:01;;;;;;;0.00;0.00;;;14.30;59.10;;;;;;5033763;28;20041;-75
2021/09/17 04:00:27;;;;;;;0.00;0.00;;;14.40;59.10;;;;;;5033189;28;20028;-76
2021/09/17 04:02:52;;;;;;;0.00;0.00;;;14.40;59.10;;;;;;5033443;28;20509;-75
2021/09/17 04:05:18;;;;;;;0.00;0.00;;;14.40;59.00;;;;;;5033605;28;20037;-75
2021/09/17 04:07:44;;;;;;;0.08;0.03;;;14.40;59.00;;;;;;5033734;28;20026;-74
2021/09/17 04:10:16;;;;;;;0.00;0.00;;;14.40;59.00;;;;;;5033293;28;20036;-76
2021/09/17 04:12:42;;;;;;;0.00;0.00;;;14.40;59.00;;;;;;5033301;28;20466;-76
2021/09/17 04:15:09;;;;;;;0.00;0.00;;;14.40;58.90;;;;;;5033283;28;20520;-75
2021/09/17 04:17:35;;;;;;;0.00;0.00;;;14.40;59.60;;;;;;5032967;28;20112;-77
2021/09/17 04:20:01;;;;;;;0.00;0.00;;;14.40;59.00;;;;;;5033156;28;20037;-74
2021/09/17 04:22:28;;;;;;;0.00;0.00;;;14.40;59.10;;;;;;5032958;28;20494;-76
2021/09/17 04:24:53;;;;;;;0.20;0.00;;;14.30;59.20;;;;;;5051606;28;20022;-76
2021/09/17 04:27:20;;;;;;;0.00;0.00;;;14.40;59.30;;;;;;5036872;28;20373;-75
2021/09/17 04:29:46;;;;;;;0.00;0.00;;;14.40;59.20;;;;;;5036812;28;20026;-76
2021/09/17 04:32:12;;;;;;;0.00;0.00;;;14.40;59.20;;;;;;5036855;28;20386;-76
2021/09/17 04:34:38;;;;;;;0.00;0.00;;;14.40;59.20;;;;;;5036472;28;20393;-76
2021/09/17 04:37:04;;;;;;;0.00;0.00;;;14.40;59.20;;;;;;5052125;28;20439;-76
2021/09/17 04:39:30;;;;;;;0.00;0.00;;;14.50;59.30;;;;;;5036703;28;20025;-76
2021/09/17 04:41:56;;;;;;;0.00;0.00;;;14.50;59.10;;;;;;5036316;28;20025;-75
2021/09/17 04:44:21;;;;;;;0.00;0.00;;;14.60;59.00;;;;;;5036831;28;20032;-76
2021/09/17 04:46:53;;;;;;;0.00;0.00;;;14.60;58.80;;;;;;5052111;28;20359;-76
2021/09/17 04:49:19;;;;;;;0.00;0.00;;;14.60;58.80;;;;;;5036270;28;20037;-76
2021/09/17 04:51:45;;;;;;;0.00;0.00;;;14.60;58.80;;;;;;5036419;28;20358;-75
2021/09/17 04:54:13;;;;;;;0.00;0.00;;;14.60;58.90;;;;;;5036743;28;20029;-75
2021/09/17 04:56:39;;;;;;;0.00;0.00;;;14.70;59.60;;;;;;5035624;28;20403;-76
2021/09/17 04:59:05;;;;;;;0.00;0.00;;;14.70;59.00;;;;;;5037088;28;20032;-76
2021/09/17 05:01:31;;;;;;;0.00;0.00;;;14.70;58.90;;;;;;5036398;28;20523;-76
2021/09/17 05:03:57;;;;;;;0.00;0.00;;;14.80;58.90;;;;;;5051952;28;20034;-75
2021/09/17 05:06:22;;;;;;;0.00;0.00;;;14.90;58.80;;;;;;5035760;28;20037;-75
2021/09/17 05:08:48;;;;;;;0.00;0.00;;;14.90;58.60;;;;;;5051635;28;20062;-76
2021/09/17 05:11:16;;;;;;;0.00;0.00;;;15.10;58.60;;;;;;5036689;28;20560;-76
2021/09/17 05:13:45;;;;;;;0.00;0.00;;;15.10;58.40;;;;;;5036261;28;20465;-75
2021/09/17 05:16:11;;;;;;;0.00;0.00;;;15.30;58.30;;;;;;5036304;28;20363;-75
2021/09/17 05:18:37;;;;;;;0.00;0.00;;;15.40;58.10;;;;;;5036909;28;20017;-77
2021/09/17 05:21:03;;;;;;;0.00;0.00;;;15.60;57.80;;;;;;5035906;28;20025;-76
2021/09/17 05:23:30;;;;;;;0.10;0.10;;;15.70;57.60;;;;;;5035214;28;20048;-76
2021/09/17 05:25:57;;;;;;;0.00;0.00;;;15.80;57.40;;;;;;5035042;28;20061;-75
2021/09/17 05:28:22;;;;;;;0.10;0.00;;;16.00;57.10;;;;;;5034885;28;20048;-77
2021/09/17 05:30:48;;;;;;;0.08;0.00;;;16.10;56.90;;;;;;5035760;28;20076;-74
2021/09/17 05:33:14;;;;;;;0.00;0.00;;;16.20;56.70;;;;;;5035959;28;20101;-75
2021/09/17 05:35:39;;;;;;;0.00;0.00;;;16.30;56.30;;;;;;5034686;28;20370;-75
2021/09/17 05:38:05;;;;;;;0.00;0.00;;;16.50;56.20;;;;;;5035633;28;20101;-75
2021/09/17 05:40:31;;;;;;;0.08;0.08;;;16.70;56.00;;;;;;5035566;28;20037;-76
2021/09/17 05:42:56;;;;;;;0.00;0.00;;;16.80;55.70;;;;;;5035905;28;20030;-76
2021/09/17 05:45:22;;;;;;;0.00;0.00;;;16.90;55.30;;;;;;5035549;28;20033;-75
2021/09/17 05:47:48;;;;;;;0.08;0.08;;;17.10;55.10;;;;;;5035044;28;20030;-74
2021/09/17 05:50:14;;;;;;;0.00;0.00;;;17.20;55.30;;;;;;5034948;28;20467;-75
2021/09/17 05:52:40;;;;;;;0.00;0.00;;;17.40;54.40;;;;;;5035011;28;20482;-74
2021/09/17 05:55:08;;;;;;;0.00;0.00;;;17.50;54.00;;;;;;5034984;28;20409;-76
2021/09/17 05:57:33;;;;;;;0.00;0.00;;;17.60;53.60;;;;;;5035808;28;20119;-75
2021/09/17 05:59:59;;;;;;;0.00;0.00;;;17.70;53.40;;;;;;5035244;28;20057;-75
2021/09/17 06:02:25;;;;;;;0.00;0.00;;;17.80;53.20;;;;;;5035104;28;20053;-75
2021/09/17 06:04:51;;;;;;;0.00;0.00;;;17.90;53.10;;;;;;5050487;28;20037;-76
2021/09/17 06:07:16;;;;;;;0.00;0.00;;;18.00;52.90;;;;;;5033805;28;20105;-75
2021/09/17 06:09:42;;;;;;;0.00;0.00;;;18.10;52.40;;;;;;5035391;28;20374;-76
2021/09/17 06:12:13;;;;;;;0.00;0.00;;;18.30;52.20;;;;;;5035010;28;20101;-76
2021/09/17 06:14:39;;;;;;;0.00;0.00;;;18.40;51.90;;;;;;5034735;28;20033;-74
2021/09/17 06:17:04;;;;;;;0.00;0.00;;;18.50;51.70;;;;;;5034409;28;20045;-74
2021/09/17 06:19:33;;;;;;;0.20;0.00;;;18.50;51.30;;;;;;5034537;28;20025;-75
2021/09/17 06:22:05;;;;;;;0.00;0.00;;;18.60;51.00;;;;;;5034577;28;20470;-75
2021/09/17 06:24:31;;;;;;;0.00;0.00;;;18.80;51.10;;;;;;5034569;28;20025;-76
2021/09/17 06:26:57;;;;;;;0.00;0.00;;;18.90;50.80;;;;;;5034718;28;20033;-77
2021/09/17 06:29:23;;;;;;;0.00;0.00;;;19.00;50.60;;;;;;5035597;28;20484;-74
2021/09/17 06:31:49;;;;;;;0.00;0.00;;;19.10;50.40;;;;;;5034275;28;20028;-75
2021/09/17 06:34:14;;;;;;;0.00;0.00;;;19.30;50.20;;;;;;5034388;28;20470;-75
2021/09/17 06:36:41;;;;;;;0.00;0.00;;;19.40;50.20;;;;;;5034832;28;20034;-74
2021/09/17 06:39:08;;;;;;;0.00;0.00;;;19.50;49.90;;;;;;5049923;28;20026;-74
2021/09/17 06:41:34;;;;;;;0.00;0.00;;;19.70;49.70;;;;;;5034110;28;20477;-75
2021/09/17 06:43:59;;;;;;;0.00;0.00;;;19.80;49.60;;;;;;5032977;28;20032;-75
2021/09/17 06:46:25;;;;;;;0.00;0.00;;;19.90;49.40;;;;;;5049617;28;20359;-75
2021/09/17 06:48:51;;;;;;;0.00;0.00;;;20.10;49.30;;;;;;5033914;28;20057;-75
2021/09/17 06:51:18;;;;;;;0.00;0.00;;;20.10;49.00;;;;;;5034432;28;20053;-75
2021/09/17 06:53:44;;;;;;;0.10;0.00;;;20.30;48.70;;;;;;5034008;28;20033;-75
2021/09/17 06:56:11;;;;;;;0.00;0.00;;;20.30;48.90;;;;;;5033657;28;20037;-76
2021/09/17 06:58:38;;;;;;;0.00;0.00;;;20.40;48.90;;;;;;5034613;28;20025;-75
2021/09/17 07:01:05;;;;;;;0.08;0.08;;;20.60;48.70;;;;;;5034255;28;20046;-76
2021/09/17 07:03:31;;;;;;;0.00;0.00;;;20.60;48.60;;;;;;5032853;28;20033;-75
2021/09/17 07:05:57;;;;;;;0.00;0.00;;;20.80;48.50;;;;;;5033425;28;20033;-77
2021/09/17 07:08:23;;;;;;;0.00;0.00;;;20.90;48.30;;;;;;5033760;28;20021;-75
2021/09/17 07:10:49;;;;;;;0.00;0.00;;;21.00;48.20;;;;;;5032967;28;20122;-74
2021/09/17 07:13:16;;;;;;;0.00;0.00;;;21.20;47.70;;;;;;5034291;28;20025;-76
2021/09/17 07:15:42;;;;;;;0.15;0.00;;;21.30;47.20;;;;;;5033800;28;20029;-75
2021/09/17 07:18:09;;;;;;;0.00;0.00;;;21.50;46.90;;;;;;5033734;28;20028;-75
2021/09/17 07:20:37;;;;;;;0.00;0.00;;;21.60;46.70;;;;;;5032873;28;20033;-74
2021/09/17 07:23:04;;;;;;;0.00;0.00;;;21.80;46.20;;;;;;5034237;28;20032;-76
2021/09/17 07:25:32;;;;;;;0.00;0.00;;;21.90;46.00;;;;;;5034097;28;20119;-73
2021/09/17 07:27:58;;;;;;;0.00;0.00;;;22.10;45.70;;;;;;5033814;28;20021;-75
2021/09/17 07:30:26;;;;;;;0.00;0.00;;;22.20;45.30;;;;;;5033456;28;20036;-73
2021/09/17 07:32:53;;;;;;;0.00;0.00;;;22.40;44.90;;;;;;5034622;28;20116;-75
2021/09/17 07:35:19;;;;;;;0.00;0.00;;;22.50;44.70;;;;;;5032851;28;20473;-74
2021/09/17 07:37:46;;;;;;;0.00;0.00;;;22.70;44.40;;;;;;5034349;28;20036;-73
2021/09/17 07:40:14;;;;;;;0.00;0.00;;;22.90;44.10;;;;;;5033810;28;20071;-74
2021/09/17 07:42:42;;;;;;;0.00;0.00;;;23.00;43.80;;;;;;5033041;28;20026;-75
2021/09/17 07:45:08;;;;;;;0.05;0.00;;;23.20;43.50;;;;;;5034064;28;20025;-74
2021/09/17 07:47:35;;;;;;;0.00;0.00;;;23.50;43.30;;;;;;5033913;28;20393;-76
2021/09/17 07:50:02;;;;;;;0.13;0.00;;;23.60;42.80;;;;;;5049159;28;20033;-76
2021/09/17 07:52:29;;;;;;;0.00;0.00;;;23.90;42.80;;;;;;5033761;28;20087;-73
2021/09/17 07:54:55;;;;;;;0.00;0.00;;;24.00;42.30;;;;;;5034250;28;20026;-76
2021/09/17 07:57:22;;;;;;;0.00;0.00;;;24.20;42.10;;;;;;5033822;28;20046;-75
2021/09/17 07:59:48;;;;;;;0.00;0.00;;;24.40;42.60;;;;;;5036651;28;20025;-74
2021/09/17 08:02:14;;;;;;;0.00;0.00;;;24.60;41.90;;;;;;5037482;28;20083;-77
2021/09/17 08:04:40;;;;;;;0.00;0.00;;;24.90;41.50;;;;;;5037456;28;20052;-76
2021/09/17 08:07:07;;;;;;;0.00;0.00;;;25.10;41.10;;;;;;5036994;28;20029;-76
2021/09/17 08:09:33;;;;;;;0.00;0.00;;;25.30;40.80;;;;;;5037153;28;20052;-74
2021/09/17 08:12:00;;;;;;;0.00;0.00;;;25.50;40.50;;;;;;5037601;28;20108;-74
2021/09/17 08:14:26;;;;;;;0.00;0.00;;;25.70;40.30;;;;;;5037670;28;20117;-75
2021/09/17 08:17:00;;;;;;;0.00;0.00;;;26.10;40.10;;;;;;5037324;28;20061;-75
2021/09/17 08:19:26;;;;;;;0.00;0.00;;;26.50;39.90;;;;;;5037055;28;20089;-74
2021/09/17 08:21:53;;;;;;;0.35;0.05;;;27.00;39.80;;;;;;5038139;28;20037;-75
2021/09/17 08:24:19;;;;;;;0.10;0.00;;;27.60;39.30;;;;;;5037470;28;20056;-74
2021/09/17 08:26:49;;;;;;;0.00;0.00;;;28.40;38.90;;;;;;5037238;28;20033;-77
2021/09/17 08:29:15;;;;;;;0.00;0.00;;;29.20;38.10;;;;;;5036850;28;20431;-80
2021/09/17 08:31:45;;;;;;;0.00;0.00;;;30.00;37.40;;;;;;5035570;28;20041;-74
2021/09/17 08:34:11;;;;;;;0.00;0.00;;;30.60;36.70;;;;;;5036814;28;20040;-76
2021/09/17 08:36:38;;;;;;;0.00;0.00;;;31.20;36.40;;;;;;5037112;28;20029;-79
2021/09/17 08:39:05;;;;;;;0.00;0.00;;;31.60;35.80;;;;;;5035486;28;20461;-76
2021/09/17 08:41:31;;;;;;;0.00;0.00;;;32.10;35.50;;;;;;5036547;28;20077;-75
2021/09/17 08:43:57;;;;;;;0.00;0.00;;;32.70;35.30;;;;;;5036663;28;20113;-76
2021/09/17 08:46:23;;;;;;;0.00;0.00;;;33.10;34.90;;;;;;5036773;28;20125;-77
2021/09/17 08:48:49;;;;;;;0.00;0.00;;;33.30;34.30;;;;;;5036545;28;20366;-76
2021/09/17 08:51:17;;;;;;;0.00;0.00;;;33.30;34.10;;;;;;5035165;28;20116;-76
2021/09/17 08:53:43;;;;;;;0.00;0.00;;;33.20;34.00;;;;;;5036628;28;20132;-76
2021/09/17 08:56:15;;;;;;;0.00;0.00;;;33.30;34.20;;;;;;5036305;28;20537;-75
2021/09/17 08:58:44;;;;;;;0.00;0.00;;;33.70;34.30;;;;;;5036209;28;20029;-74
2021/09/17 09:01:36;;;;;;;0.00;0.00;;;34.20;34.30;;;;;;5036726;28;20033;-76
2021/09/17 09:04:15;;;;;;;0.00;0.00;;;34.80;34.00;;;;;;5051398;28;20469;-75
2021/09/17 09:07:17;;;;;;;0.00;0.00;;;35.20;33.40;;;;;;5035972;28;20091;-76
2021/09/17 09:09:49;;;;;;;0.00;0.00;;;35.30;33.00;;;;;;5034636;28;20080;-77
2021/09/17 09:12:18;;;;;;;0.00;0.00;;;35.30;32.90;;;;;;5035659;28;20490;-76
2021/09/17 09:14:43;;;;;;;0.00;0.00;;;35.50;32.90;;;;;;5035690;28;20462;-75
2021/09/17 09:17:09;;;;;;;0.00;0.00;;;35.80;32.70;;;;;;5035683;28;20083;-75
2021/09/17 09:19:37;;;;;;;0.00;0.00;;;36.10;32.50;;;;;;5051280;28;20022;-75
2021/09/17 09:22:03;;;;;;;0.00;0.00;;;36.50;32.40;;;;;;5035979;28;20057;-75
2021/09/17 09:24:31;;;;;;;0.10;0.00;;;37.00;32.20;;;;;;5035104;28;20492;-76
2021/09/17 09:27:16;;;;;;;0.00;0.00;;;36.90;31.80;;;;;;5035443;28;20041;-75
2021/09/17 09:29:48;;;;;;;0.00;0.00;;;36.40;31.80;;;;;;5035948;28;20029;-76
2021/09/17 09:32:45;;;;;;;0.00;0.00;;;36.30;32.20;;;;;;5035408;28;20026;-75
2021/09/17 09:35:16;;;;;;;0.00;0.00;;;36.60;32.40;;;;;;5035136;28;20033;-76
2021/09/17 09:37:46;;;;;;;0.30;0.00;;;37.00;32.20;;;;;;5035305;28;20095;-75
2021/09/17 09:40:17;;;;;;;0.00;0.00;;;37.30;32.10;;;;;;5035288;28;20057;-75
2021/09/17 09:42:50;;;;;;;0.00;0.00;;;37.70;32.10;;;;;;5035573;28;20017;-75
2021/09/17 09:45:25;;;;;;;0.00;0.00;;;38.20;31.90;;;;;;5034356;28;20365;-75
2021/09/17 09:47:54;;;;;;;0.00;0.00;;;38.50;31.70;;;;;;5035459;28;20481;-75
2021/09/17 09:50:26;;;;;;;0.00;0.00;;;38.30;31.60;;;;;;5035422;28;20034;-75
2021/09/17 09:52:57;;;;;;;0.00;0.00;;;38.20;31.60;;;;;;5035409;28;20116;-76
2021/09/17 09:55:23;;;;;;;0.00;0.00;;;37.80;31.50;;;;;;5034982;28;20091;-77
2021/09/17 09:57:49;;;;;;;0.00;0.00;;;37.20;31.60;;;;;;5034617;28;20053;-75
2021/09/17 10:00:23;;;;;;;0.00;0.00;;;36.50;32.00;;;;;;5034861;28;20025;-77
2021/09/17 10:02:50;;;;;;;0.00;0.00;;;35.70;32.50;;;;;;5049769;28;20028;-76
2021/09/17 10:05:19;;;;;;;0.00;0.00;;;34.90;33.10;;;;;;5034440;28;20401;-76
2021/09/17 10:07:45;;;;;;;0.00;0.00;;;34.00;33.70;;;;;;5033627;28;20021;-75
2021/09/17 10:10:15;;;;;;;0.00;0.00;;;33.30;34.30;;;;;;5034979;28;20102;-76
2021/09/17 10:12:40;;;;;;;0.00;0.00;;;32.70;34.70;;;;;;5035028;28;20025;-75
2021/09/17 10:15:10;;;;;;;0.00;0.00;;;32.30;35.10;;;;;;5033648;28;20041;-75
2021/09/17 10:17:38;;;;;;;0.00;0.00;;;31.80;35.50;;;;;;5049916;28;20114;-75
2021/09/17 10:20:08;;;;;;;0.00;0.00;;;31.50;36.00;;;;;;5034982;28;20021;-75
2021/09/17 10:22:49;;;;;;;0.00;0.00;;;31.10;36.40;;;;;;5034399;28;20030;-77
2021/09/17 10:25:18;;;;;;;0.00;0.00;;;31.10;36.50;;;;;;5034487;28;20056;-76
2021/09/17 10:28:05;;;;;;;0.00;0.00;;;31.10;36.60;;;;;;5035148;28;20025;-76
2021/09/17 10:30:33;;;;;;;0.00;0.00;;;31.00;36.80;;;;;;5034413;28;20378;-76
2021/09/17 10:32:59;;;;;;;0.00;0.00;;;30.90;36.70;;;;;;5033495;28;20025;-75
2021/09/17 10:35:29;;;;;;;0.00;0.00;;;30.70;37.00;;;;;;5034643;28;20116;-76
2021/09/17 10:38:18;;;;;;;0.00;0.00;;;30.70;37.20;;;;;;5034639;28;20104;-75
2021/09/17 10:41:00;;;;;;;0.00;0.00;;;31.00;37.20;;;;;;5033704;28;20397;-77
2021/09/17 10:43:29;;;;;;;0.05;0.05;;;31.30;36.90;;;;;;5033585;28;20064;-75
2021/09/17 10:45:56;;;;;;;0.00;0.00;;;31.90;36.60;;;;;;5034857;28;20107;-74
2021/09/17 10:48:55;;;;;;;0.00;0.00;;;32.20;36.40;;;;;;5034974;28;20376;-75
2021/09/17 10:51:33;;;;;;;0.00;0.00;;;32.40;36.00;;;;;;5034528;28;20037;-76
2021/09/17 10:54:05;;;;;;;0.00;0.00;;;32.50;35.70;;;;;;5034184;28;20017;-76
2021/09/17 10:56:49;;;;;;;0.00;0.00;;;32.70;35.90;;;;;;5034408;28;20064;-75
2021/09/17 10:59:27;;;;;;;0.00;0.00;;;32.60;35.50;;;;;;5034233;28;20033;-76
2021/09/17 11:02:04;;;;;;;0.00;0.00;;;32.70;35.60;;;;;;5034936;28;20108;-76
2021/09/17 11:04:33;;;;;;;0.00;0.00;;;33.20;35.50;;;;;;5033523;28;20358;-76
2021/09/17 11:07:17;;;;;;;0.00;0.00;;;33.40;34.90;;;;;;5034640;28;20037;-74
2021/09/17 11:09:47;;;;;;;0.00;0.00;;;33.40;35.00;;;;;;5034056;28;20029;-76
2021/09/17 11:12:23;;;;;;;0.00;0.00;;;33.30;34.90;;;;;;5034372;28;20017;-76
2021/09/17 11:15:04;;;;;;;0.00;0.00;;;33.10;35.00;;;;;;5033988;28;20066;-76
2021/09/17 11:17:42;;;;;;;0.00;0.00;;;32.70;35.00;;;;;;5033176;28;20033;-75
2021/09/17 11:20:17;;;;;;;0.00;0.00;;;32.30;35.30;;;;;;5033560;28;20026;-77
2021/09/17 11:23:04;;;;;;;0.00;0.00;;;31.90;35.60;;;;;;5034259;28;20032;-75
2021/09/17 11:25:36;;;;;;;0.00;0.00;;;31.70;36.00;;;;;;5033993;28;20536;-75
2021/09/17 11:28:29;;;;;;;0.00;0.00;;;31.70;36.20;;;;;;5033261;28;20068;-76
2021/09/17 11:31:17;;;;;;;0.00;0.00;;;32.10;36.40;;;;;;5034374;28;20021;-75
2021/09/17 11:34:04;;;;;;;0.00;0.00;;;33.00;36.00;;;;;;5032766;28;20060;-75
2021/09/17 11:36:55;;;;;;;0.00;0.00;;;33.90;35.10;;;;;;5035118;28;20026;-75
2021/09/17 11:39:27;;;;;;;0.00;0.00;;;34.40;34.60;;;;;;5033183;28;20217;-78
2021/09/17 11:42:09;;;;;;;0.00;0.00;;;35.10;34.50;;;;;;5033531;28;20026;-77
2021/09/17 11:44:36;;;;;;;0.00;0.00;;;35.10;33.70;;;;;;5032221;28;20061;-77
2021/09/17 11:47:10;;;;;;;0.00;0.00;;;34.40;33.90;;;;;;5032989;28;20469;-77
2021/09/17 11:49:39;;;;;;;0.00;0.00;;;33.90;34.40;;;;;;5033013;28;20068;-76
2021/09/17 11:52:07;;;;;;;0.00;0.00;;;33.80;34.50;;;;;;5033354;28;20034;-76
2021/09/17 11:54:33;;;;;;;0.00;0.00;;;33.60;34.50;;;;;;5032022;28;20030;-79
2021/09/17 11:57:10;;;;;;;0.00;0.00;;;33.40;34.60;;;;;;5033465;28;20046;-77
2021/09/17 11:59:42;;;;;;;0.00;0.00;;;33.40;34.80;;;;;;5033645;28;20025;-76
2021/09/17 12:02:19;;;;;;;0.00;0.00;;;33.40;34.90;;;;;;5033513;28;20029;-75
2021/09/17 12:04:57;;;;;;;0.00;0.00;;;33.70;34.90;;;;;;5034222;28;20018;-75
2021/09/17 12:07:30;;;;;;;0.00;0.00;;;33.60;34.80;;;;;;5033553;28;20124;-76
2021/09/17 12:09:58;;;;;;;0.17;0.00;;;33.10;35.20;;;;;;5033779;28;20425;-74
2021/09/17 12:12:33;;;;;;;0.00;0.00;;;32.50;35.70;;;;;;5033232;28;20385;-77
2021/09/17 12:15:00;;;;;;;0.00;0.00;;;31.90;36.00;;;;;;5033346;28;20472;-77
2021/09/17 12:17:27;;;;;;;0.00;0.00;;;31.30;36.50;;;;;;5033167;28;20030;-76
2021/09/17 12:20:05;;;;;;;0.00;0.00;;;30.80;37.00;;;;;;5033343;28;20033;-75
2021/09/17 12:22:39;;;;;;;0.00;0.00;;;30.40;37.60;;;;;;5033003;28;20041;-77
2021/09/17 12:25:14;;;;;;;0.00;0.00;;;30.10;37.60;;;;;;5048756;28;20029;-76
2021/09/17 12:27:42;;;;;;;0.00;0.00;;;29.80;37.90;;;;;;5032911;28;20145;-76
2021/09/17 12:30:19;;;;;;;0.00;0.00;;;29.50;38.20;;;;;;5033162;28;20032;-74
2021/09/17 12:33:11;;;;;;;0.00;0.00;;;29.20;38.50;;;;;;5033528;28;20032;-75
2021/09/17 12:35:40;;;;;;;0.00;0.00;;;29.10;38.90;;;;;;5032530;28;20030;-76
2021/09/17 12:38:09;;;;;;;0.00;0.00;;;28.90;39.20;;;;;;5032960;28;20367;-73
2021/09/17 12:40:39;;;;;;;0.00;0.00;;;28.80;39.40;;;;;;5033233;28;20033;-76
2021/09/17 12:43:08;;;;;;;0.00;0.00;;;28.70;39.70;;;;;;5032698;28;20032;-76
2021/09/17 12:46:05;;;;;;;0.00;0.00;;;28.70;40.00;;;;;;5036408;28;20041;-75
2021/09/17 12:48:39;;;;;;;0.00;0.00;;;28.60;40.20;;;;;;5037841;28;20083;-76
2021/09/17 12:51:06;;;;;;;0.00;0.00;;;28.70;40.40;;;;;;5036843;28;20116;-76
2021/09/17 12:53:35;;;;;;;0.00;0.00;;;28.70;40.30;;;;;;5036553;28;20363;-75
2021/09/17 12:56:19;;;;;;;0.00;0.00;;;28.70;40.30;;;;;;5036661;28;20085;-76